Ana Sayfa
METAR-TAF:

METAR-TAF

Havaalanları :

Air Force Base Hoedspruit - Eastgate Airport

Hoedspruit, Güney Afrika

Enlem: 24-21-17S, Boylam: 31-03-01E, yükseklik: 531 m

Güncel hava durumu gözlemi

Rapor saat 20:00 UTC de 48 dakika önce yapıldı.
Rüzgar güney/güneydoğudan 6 kt
Sıcaklık 18°C
Nem 73%
Basınç 1027 hPa

METAR: FAHS 242000Z AUTO 16006KT //// // ////// 18/13 Q1027

Saat: 22:48 (20:48 UTC)

Tahmin

Rapor saat 09:00 UTC de 11 saat ve 48 dakika önce yapıldı.
Ayın 24'si saat 10 UTC'den ayın 24'si saat 18 UTC'ye kadar geçerli Tahmin
Rüzgar doğu/güneydoğudan 10 kt
Görüş mesafesi 10 km veya daha fazla
2000 ft yükseklikte parçalı çok bulutlu
Dönüşüyor
ayın 24'si saat 12 UTC'den ayın 24'si saat 14 UTC'ye kadar
3500 ft yükseklikte parçalı bulutlu

TAF: FAHS 240900Z 2410/2418 12010KT 9999 BKN020 TX25/2412Z TN18/2418Z BECMG 2412/2414 SCT035

4.000'den fazla havaalanı için hava durumu gözlemleri ve tahminleri (METAR ve TAF raporları).

Kullanılabilir istasyonlar harita üzerinde sarı ve kırmızı noktalarla gösterilir.

İstasyonun adını görmek için fareyi noktanın üzerinde gezdirin.

Sonrasında hava gözlem ve tahminlerini görmek için tıklayın.

Haritayı değiştirmek için: yaklaştırmak için siyah artı işaretli yeşil düğmeye ve uzaklaştırmak için de eksi işaretli düğmeye hızla tıklayın; bitişik haritalar için yeşil okları kullanın.


METAR-TAF: